Time;durP1;ratioP1;P1;durP2;ratioP2;P2;SDS_P1;SDS_P2;PMS_P1;PMS_P2;Temp;Humidity;BMP_temperature;BMP_pressure;BME280_temperature;BME280_humidity;BME280_pressure;Samples;Min_cycle;Max_cycle;Signal;HPM_P1;HPM_P2
2022/09/06 00:02:13;;;;;;;;;2.33;2.33;;;;;;;;5105408;27;62009;-76
2022/09/06 00:04:38;;;;;;;;;3.33;3.33;;;;;;;;5104929;27;61737;-76
2022/09/06 00:07:04;;;;;;;;;4.00;2.67;;;;;;;;5105618;27;62008;-75
2022/09/06 00:09:29;;;;;;;;;4.00;3.00;;;;;;;;5104472;27;63008;-75
2022/09/06 00:11:54;;;;;;;;;5.33;2.67;;;;;;;;5103231;27;62007;-75
2022/09/06 00:14:19;;;;;;;;;3.67;3.00;;;;;;;;5103855;27;62056;-75
2022/09/06 00:16:45;;;;;;;;;5.00;3.00;;;;;;;;5105317;27;61780;-76
2022/09/06 00:19:10;;;;;;;;;3.67;3.33;;;;;;;;5104333;27;62713;-75
2022/09/06 00:21:36;;;;;;;;;2.00;2.00;;;;;;;;5103659;27;61825;-75
2022/09/06 00:24:02;;;;;;;;;2.67;2.67;;;;;;;;5103434;27;61930;-76
2022/09/06 00:26:28;;;;;;;;;3.00;2.00;;;;;;;;5105374;27;61701;-75
2022/09/06 00:28:53;;;;;;;;;4.00;4.00;;;;;;;;5102757;27;62675;-76
2022/09/06 00:31:19;;;;;;;;;3.00;3.00;;;;;;;;5104778;27;61917;-76
2022/09/06 00:33:45;;;;;;;;;3.00;3.00;;;;;;;;5103375;27;61785;-76
2022/09/06 00:36:11;;;;;;;;;2.67;2.67;;;;;;;;5105153;27;61962;-76
2022/09/06 00:38:37;;;;;;;;;3.00;3.00;;;;;;;;5102563;27;63646;-75
2022/09/06 00:41:02;;;;;;;;;3.00;3.00;;;;;;;;5103145;27;62017;-76
2022/09/06 00:43:28;;;;;;;;;3.75;3.50;;;;;;;;5103014;27;61880;-75
2022/09/06 00:45:53;;;;;;;;;4.00;2.00;;;;;;;;5104686;27;62031;-76
2022/09/06 00:48:19;;;;;;;;;4.33;2.00;;;;;;;;5102573;27;63252;-75
2022/09/06 00:50:46;;;;;;;;;4.00;2.33;;;;;;;;5103104;27;62018;-75
2022/09/06 00:53:11;;;;;;;;;2.67;2.67;;;;;;;;5104209;27;61912;-76
2022/09/06 00:55:37;;;;;;;;;3.00;2.67;;;;;;;;5103349;27;61952;-76
2022/09/06 00:58:02;;;;;;;;;5.00;5.00;;;;;;;;5103300;27;62640;-76
2022/09/06 01:00:27;;;;;;;;;1.67;1.67;;;;;;;;5104659;27;61845;-75
2022/09/06 01:02:53;;;;;;;;;5.67;2.67;;;;;;;;5102701;27;61890;-75
2022/09/06 01:05:19;;;;;;;;;2.00;2.00;;;;;;;;5104754;27;61812;-75
2022/09/06 01:07:59;;;;;;;;;3.00;3.00;;;;;;;;5102645;27;63734;-76
2022/09/06 01:10:48;;;;;;;;;1.67;1.67;;;;;;;;5103455;27;61928;-75
2022/09/06 01:13:45;;;;;;;;;3.00;3.00;;;;;;;;5093566;27;62037;-75
2022/09/06 01:16:26;;;;;;;;;3.33;3.33;;;;;;;;5068452;27;62135;-75
2022/09/06 01:18:54;;;;;;;;;5.25;3.75;;;;;;;;5103113;27;63274;-76
2022/09/06 01:21:29;;;;;;;;;2.33;2.33;;;;;;;;5104045;27;61892;-75
2022/09/06 01:24:13;;;;;;;;;2.00;2.00;;;;;;;;5102320;27;62026;-75
2022/09/06 01:26:57;;;;;;;;;4.00;2.00;;;;;;;;5103993;27;62124;-75
2022/09/06 01:29:26;;;;;;;;;4.75;3.00;;;;;;;;5103184;27;61927;-76
2022/09/06 01:31:55;;;;;;;;;2.75;2.75;;;;;;;;5103581;27;61887;-76
2022/09/06 01:34:26;;;;;;;;;4.00;2.00;;;;;;;;5104131;27;61726;-75
2022/09/06 01:37:00;;;;;;;;;3.67;3.33;;;;;;;;5102826;27;62649;-75
2022/09/06 01:39:27;;;;;;;;;3.00;3.00;;;;;;;;5102384;27;61705;-76
2022/09/06 01:41:53;;;;;;;;;6.00;3.67;;;;;;;;5101964;27;62069;-75
2022/09/06 01:44:20;;;;;;;;;3.75;3.00;;;;;;;;5103707;27;61752;-75
2022/09/06 01:46:48;;;;;;;;;5.00;3.00;;;;;;;;5102363;27;61785;-75
2022/09/06 01:49:14;;;;;;;;;5.00;4.00;;;;;;;;5102790;27;61875;-76
2022/09/06 01:51:48;;;;;;;;;4.00;4.00;;;;;;;;5102017;27;62233;-76
2022/09/06 01:54:22;;;;;;;;;5.50;3.75;;;;;;;;5103124;27;61932;-75
2022/09/06 01:57:02;;;;;;;;;5.75;5.25;;;;;;;;5101869;27;61976;-75
2022/09/06 01:59:39;;;;;;;;;4.50;3.00;;;;;;;;5102399;27;62738;-76
2022/09/06 02:02:05;;;;;;;;;4.50;3.00;;;;;;;;5103227;27;62237;-76
2022/09/06 02:04:30;;;;;;;;;4.75;2.50;;;;;;;;5103524;27;61785;-75
2022/09/06 02:07:00;;;;;;;;;4.75;4.00;;;;;;;;5103628;27;61813;-76
2022/09/06 02:09:29;;;;;;;;;4.00;3.50;;;;;;;;5102639;27;62906;-75
2022/09/06 02:11:56;;;;;;;;;4.50;4.00;;;;;;;;5101722;27;62045;-75
2022/09/06 02:14:24;;;;;;;;;2.75;2.75;;;;;;;;5103072;27;61725;-76
2022/09/06 02:16:52;;;;;;;;;4.00;4.00;;;;;;;;5101730;27;61691;-75
2022/09/06 02:19:23;;;;;;;;;3.75;3.00;;;;;;;;5100959;27;63927;-76
2022/09/06 02:21:50;;;;;;;;;3.00;3.00;;;;;;;;5101940;27;61987;-76
2022/09/06 02:24:21;;;;;;;;;4.00;4.00;;;;;;;;5101447;27;61983;-75
2022/09/06 02:26:47;;;;;;;;;4.25;4.00;;;;;;;;5103140;27;62041;-76
2022/09/06 02:29:14;;;;;;;;;5.25;5.00;;;;;;;;5100424;27;63597;-76
2022/09/06 02:31:51;;;;;;;;;4.25;2.00;;;;;;;;5101696;27;61836;-75
2022/09/06 02:34:18;;;;;;;;;6.00;4.50;;;;;;;;5102920;27;61885;-75
2022/09/06 02:36:44;;;;;;;;;4.00;2.00;;;;;;;;5103207;27;61746;-76
2022/09/06 02:39:09;;;;;;;;;6.00;3.33;;;;;;;;5100257;27;63348;-76
2022/09/06 02:41:34;;;;;;;;;4.00;4.00;;;;;;;;5101098;27;61758;-76
2022/09/06 02:44:00;;;;;;;;;3.00;3.00;;;;;;;;5102788;27;61907;-75
2022/09/06 02:46:25;;;;;;;;;4.00;3.00;;;;;;;;5102987;27;61878;-76
2022/09/06 02:48:50;;;;;;;;;3.00;3.00;;;;;;;;5102447;27;63233;-76
2022/09/06 02:51:15;;;;;;;;;4.00;4.00;;;;;;;;5101697;27;61709;-76
2022/09/06 02:53:41;;;;;;;;;4.00;3.50;;;;;;;;5105123;27;61798;-75
2022/09/06 02:56:06;;;;;;;;;6.00;4.25;;;;;;;;5106611;27;61765;-76
2022/09/06 02:58:31;;;;;;;;;3.75;3.75;;;;;;;;5103490;27;65221;-75
2022/09/06 03:00:57;;;;;;;;;4.00;4.00;;;;;;;;5106453;27;61788;-76
2022/09/06 03:03:22;;;;;;;;;6.75;4.25;;;;;;;;5106183;27;61800;-76
2022/09/06 03:05:51;;;;;;;;;7.00;4.00;;;;;;;;5105089;27;61902;-75
2022/09/06 03:08:17;;;;;;;;;4.50;3.75;;;;;;;;5104060;27;63738;-75
2022/09/06 03:10:53;;;;;;;;;7.00;4.00;;;;;;;;5104600;27;62212;-76
2022/09/06 03:13:18;;;;;;;;;2.50;2.00;;;;;;;;5103974;27;62218;-75
2022/09/06 03:15:44;;;;;;;;;5.25;4.00;;;;;;;;5106212;27;62037;-75
2022/09/06 03:18:09;;;;;;;;;5.25;4.50;;;;;;;;5105302;27;62769;-75
2022/09/06 03:20:34;;;;;;;;;5.50;4.00;;;;;;;;5104333;27;61910;-76
2022/09/06 03:23:00;;;;;;;;;5.00;2.00;;;;;;;;5105877;27;61774;-76
2022/09/06 03:25:25;;;;;;;;;6.50;4.00;;;;;;;;5105817;27;61771;-76
2022/09/06 03:27:50;;;;;;;;;4.50;4.50;;;;;;;;5103479;27;65138;-76
2022/09/06 03:30:16;;;;;;;;;5.75;3.75;;;;;;;;5105839;27;61789;-76
2022/09/06 03:32:41;;;;;;;;;5.50;4.75;;;;;;;;5104297;27;61960;-76
2022/09/06 03:35:06;;;;;;;;;4.00;3.00;;;;;;;;5104630;27;62299;-76
2022/09/06 03:37:32;;;;;;;;;3.00;3.00;;;;;;;;5103494;27;63704;-75
2022/09/06 03:39:57;;;;;;;;;3.25;3.25;;;;;;;;5105207;27;61971;-76
2022/09/06 03:42:25;;;;;;;;;5.00;3.75;;;;;;;;5103786;27;61959;-76
2022/09/06 03:44:50;;;;;;;;;4.00;4.00;;;;;;;;5104492;27;62120;-76
2022/09/06 03:47:15;;;;;;;;;5.50;4.00;;;;;;;;5103622;27;64687;-76
2022/09/06 03:49:40;;;;;;;;;5.75;3.00;;;;;;;;5103985;27;61780;-76
2022/09/06 03:52:06;;;;;;;;;5.75;5.75;;;;;;;;5104084;27;61895;-76
2022/09/06 03:54:31;;;;;;;;;6.25;4.00;;;;;;;;5105400;27;61710;-76
2022/09/06 03:56:56;;;;;;;;;5.00;5.00;;;;;;;;5103971;27;62887;-76
2022/09/06 03:59:22;;;;;;;;;7.25;5.00;;;;;;;;5105216;27;62275;-76
2022/09/06 04:01:47;;;;;;;;;8.50;5.75;;;;;;;;5104889;27;61617;-76
2022/09/06 04:04:12;;;;;;;;;7.75;5.00;;;;;;;;5105200;27;61903;-75
2022/09/06 04:06:37;;;;;;;;;6.50;5.25;;;;;;;;5104643;27;62519;-75
2022/09/06 04:09:03;;;;;;;;;5.33;5.00;;;;;;;;5105171;27;62006;-76
2022/09/06 04:11:28;;;;;;;;;5.00;5.00;;;;;;;;5104599;27;61954;-75
2022/09/06 04:13:53;;;;;;;;;3.75;3.75;;;;;;;;5105418;27;61778;-75
2022/09/06 04:16:19;;;;;;;;;5.50;5.00;;;;;;;;5104477;27;62066;-76
2022/09/06 04:18:44;;;;;;;;;7.50;6.00;;;;;;;;5103457;27;62169;-75
2022/09/06 04:21:09;;;;;;;;;6.75;5.50;;;;;;;;5105108;27;61968;-76
2022/09/06 04:23:35;;;;;;;;;6.75;5.50;;;;;;;;5103588;27;61956;-76
2022/09/06 04:26:00;;;;;;;;;10.75;5.00;;;;;;;;5102790;27;63873;-76
2022/09/06 04:28:25;;;;;;;;;5.00;3.75;;;;;;;;5104854;27;62787;-76
2022/09/06 04:30:55;;;;;;;;;7.00;5.00;;;;;;;;5104625;27;61778;-76
2022/09/06 04:33:24;;;;;;;;;7.00;5.00;;;;;;;;5105179;27;61665;-76
2022/09/06 04:35:49;;;;;;;;;7.00;7.00;;;;;;;;5104020;27;61781;-76
2022/09/06 04:38:15;;;;;;;;;7.75;6.75;;;;;;;;5104698;27;62175;-75
2022/09/06 04:40:41;;;;;;;;;4.50;4.50;;;;;;;;5103030;27;61811;-75
2022/09/06 04:43:06;;;;;;;;;7.75;6.75;;;;;;;;5103068;27;61772;-75
2022/09/06 04:45:31;;;;;;;;;6.00;5.75;;;;;;;;5102547;27;64656;-75
2022/09/06 04:47:56;;;;;;;;;7.75;5.00;;;;;;;;5102826;27;62035;-75
2022/09/06 04:50:22;;;;;;;;;5.25;4.00;;;;;;;;5103309;27;61970;-75
2022/09/06 04:52:47;;;;;;;;;5.25;4.00;;;;;;;;5104219;27;61703;-76
2022/09/06 04:55:12;;;;;;;;;5.50;5.00;;;;;;;;5103699;27;62201;-75
2022/09/06 04:57:37;;;;;;;;;4.75;4.25;;;;;;;;5102774;27;61995;-75
2022/09/06 05:00:03;;;;;;;;;5.50;5.50;;;;;;;;5103855;27;61878;-75
2022/09/06 05:02:28;;;;;;;;;5.50;3.00;;;;;;;;5103127;27;61836;-75
2022/09/06 05:04:54;;;;;;;;;6.50;4.00;;;;;;;;5103097;27;61785;-75
2022/09/06 05:07:19;;;;;;;;;6.00;5.25;;;;;;;;5102650;27;61983;-75
2022/09/06 05:09:44;;;;;;;;;3.00;3.00;;;;;;;;5104444;27;61922;-75
2022/09/06 05:12:09;;;;;;;;;6.75;4.75;;;;;;;;5102639;27;61777;-73
2022/09/06 05:14:35;;;;;;;;;5.00;4.00;;;;;;;;5101483;27;63440;-74
2022/09/06 05:17:00;;;;;;;;;6.00;3.25;;;;;;;;5103938;27;62028;-74
2022/09/06 05:19:26;;;;;;;;;5.00;5.00;;;;;;;;5100958;27;61931;-74
2022/09/06 05:21:52;;;;;;;;;7.00;5.00;;;;;;;;5101877;27;61830;-75
2022/09/06 05:24:17;;;;;;;;;6.00;4.00;;;;;;;;5101630;27;63661;-74
2022/09/06 05:26:42;;;;;;;;;6.00;5.00;;;;;;;;5102225;27;61943;-74
2022/09/06 05:29:07;;;;;;;;;7.00;6.00;;;;;;;;5104058;27;61879;-74
2022/09/06 05:31:34;;;;;;;;;6.25;4.00;;;;;;;;5102895;27;62062;-74
2022/09/06 05:33:59;;;;;;;;;3.50;3.50;;;;;;;;5103374;27;61949;-75
2022/09/06 05:36:25;;;;;;;;;9.00;4.25;;;;;;;;5103005;27;61995;-75
2022/09/06 05:38:52;;;;;;;;;4.25;4.00;;;;;;;;5086270;27;61964;-73
2022/09/06 05:41:17;;;;;;;;;6.00;4.00;;;;;;;;5102562;27;61945;-74
2022/09/06 05:43:42;;;;;;;;;4.50;4.50;;;;;;;;5101446;27;64621;-74
2022/09/06 05:46:08;;;;;;;;;4.25;4.00;;;;;;;;5101408;27;61852;-75
2022/09/06 05:48:33;;;;;;;;;6.00;4.75;;;;;;;;5103757;27;62114;-76
2022/09/06 05:51:00;;;;;;;;;4.50;4.50;;;;;;;;5101593;27;62211;-74
2022/09/06 05:53:25;;;;;;;;;5.00;4.00;;;;;;;;5100856;27;63331;-75
2022/09/06 05:55:50;;;;;;;;;6.25;5.75;;;;;;;;5103252;27;61898;-76
2022/09/06 05:58:15;;;;;;;;;6.25;4.00;;;;;;;;5102765;27;62422;-76
2022/09/06 06:00:41;;;;;;;;;9.75;6.00;;;;;;;;5103345;27;61867;-76
2022/09/06 06:03:06;;;;;;;;;5.75;5.75;;;;;;;;5101040;27;63964;-76
2022/09/06 06:05:31;;;;;;;;;3.50;3.50;;;;;;;;5101871;27;61986;-76
2022/09/06 06:07:58;;;;;;;;;6.25;5.00;;;;;;;;5102154;27;61783;-79
2022/09/06 06:10:23;;;;;;;;;11.25;10.00;;;;;;;;5103582;27;61844;-77
2022/09/06 06:12:48;;;;;;;;;6.00;5.00;;;;;;;;5101202;27;63707;-74
2022/09/06 06:15:14;;;;;;;;;7.00;4.00;;;;;;;;5103390;27;62110;-77
2022/09/06 06:17:39;;;;;;;;;8.75;4.00;;;;;;;;5102184;27;61907;-74
2022/09/06 06:20:05;;;;;;;;;5.00;4.75;;;;;;;;5101773;27;62293;-74
2022/09/06 06:22:30;;;;;;;;;5.50;4.50;;;;;;;;5103039;27;61919;-74
2022/09/06 06:24:55;;;;;;;;;6.25;4.75;;;;;;;;5102892;27;61844;-74
2022/09/06 06:27:21;;;;;;;;;4.25;4.00;;;;;;;;5101914;27;61775;-74
2022/09/06 06:29:46;;;;;;;;;5.25;4.00;;;;;;;;5103637;27;62010;-74
2022/09/06 06:32:11;;;;;;;;;4.00;3.00;;;;;;;;5102443;27;62006;-75
2022/09/06 06:34:37;;;;;;;;;3.50;3.50;;;;;;;;5095321;27;62271;-78
2022/09/06 06:37:02;;;;;;;;;5.75;4.00;;;;;;;;5090768;27;61776;-77
2022/09/06 06:39:28;;;;;;;;;3.00;3.00;;;;;;;;5099841;27;61795;-76
2022/09/06 06:41:53;;;;;;;;;6.00;4.75;;;;;;;;5100526;27;63350;-76
2022/09/06 06:44:18;;;;;;;;;4.00;3.00;;;;;;;;5100537;27;61689;-76
2022/09/06 06:46:43;;;;;;;;;2.33;2.33;;;;;;;;5099836;27;61904;-78
2022/09/06 06:49:09;;;;;;;;;3.00;3.00;;;;;;;;5102287;27;61943;-76
2022/09/06 06:51:38;;;;;;;;;2.67;1.33;;;;;;;;5101215;27;62524;-76
2022/09/06 06:54:04;;;;;;;;;6.00;3.00;;;;;;;;5102150;27;62288;-75
2022/09/06 06:56:31;;;;;;;;;4.00;4.00;;;;;;;;5099194;27;62546;-75
2022/09/06 06:58:57;;;;;;;;;5.33;4.00;;;;;;;;5099805;27;62366;-75
2022/09/06 07:01:23;;;;;;;;;6.00;3.33;;;;;;;;5099983;27;63757;-75
2022/09/06 07:03:49;;;;;;;;;4.67;4.00;;;;;;;;5102248;27;62689;-75
2022/09/06 07:06:14;;;;;;;;;4.00;4.00;;;;;;;;5102104;27;61908;-74
2022/09/06 07:08:40;;;;;;;;;5.33;4.33;;;;;;;;5100142;27;61895;-74
2022/09/06 07:11:07;;;;;;;;;2.67;2.67;;;;;;;;5101731;27;61766;-74
2022/09/06 07:13:35;;;;;;;;;6.33;3.67;;;;;;;;5100402;27;62026;-75
2022/09/06 07:16:14;;;;;;;;;2.33;2.33;;;;;;;;5102448;27;61773;-74
2022/09/06 07:18:41;;;;;;;;;3.67;2.00;;;;;;;;5102190;27;61678;-74
2022/09/06 07:21:16;;;;;;;;;3.33;2.33;;;;;;;;5100426;27;63785;-74
2022/09/06 07:23:42;;;;;;;;;3.00;3.00;;;;;;;;5102026;27;62106;-74
2022/09/06 07:26:12;;;;;;;;;6.67;6.00;;;;;;;;5100924;27;62238;-74
2022/09/06 07:28:37;;;;;;;;;4.33;4.00;;;;;;;;5100780;27;62151;-74
2022/09/06 07:31:03;;;;;;;;;1.67;1.67;;;;;;;;5101721;27;62783;-74
2022/09/06 07:33:28;;;;;;;;;4.33;3.33;;;;;;;;5102051;27;61909;-74
2022/09/06 07:35:58;;;;;;;;;4.00;4.00;;;;;;;;5102407;27;61809;-74
2022/09/06 07:38:23;;;;;;;;;4.33;3.00;;;;;;;;5104507;27;61813;-74
2022/09/06 07:40:53;;;;;;;;;5.33;4.00;;;;;;;;5104770;27;61855;-74
2022/09/06 07:43:18;;;;;;;;;4.00;3.67;;;;;;;;5084853;28;61889;-74
2022/09/06 07:45:43;;;;;;;;;2.67;2.67;;;;;;;;5096108;27;61938;-74
2022/09/06 07:48:08;;;;;;;;;5.33;3.33;;;;;;;;5103912;27;62149;-73
2022/09/06 07:50:34;;;;;;;;;5.00;4.00;;;;;;;;5104952;27;62057;-74
2022/09/06 07:53:08;;;;;;;;;3.00;3.00;;;;;;;;5104914;27;61901;-74
2022/09/06 07:55:34;;;;;;;;;2.00;2.00;;;;;;;;5105514;27;61923;-75
2022/09/06 07:57:59;;;;;;;;;3.00;3.00;;;;;;;;5105384;27;61997;-74
2022/09/06 08:00:24;;;;;;;;;3.33;3.33;;;;;;;;5104552;27;62823;-74
2022/09/06 08:02:49;;;;;;;;;5.00;3.67;;;;;;;;5103667;27;61712;-74
2022/09/06 08:05:15;;;;;;;;;3.33;2.67;;;;;;;;5105398;27;61940;-74
2022/09/06 08:07:40;;;;;;;;;4.33;2.67;;;;;;;;5105586;27;62134;-74
2022/09/06 08:10:05;;;;;;;;;4.33;2.67;;;;;;;;5104211;27;62984;-74
2022/09/06 08:12:31;;;;;;;;;4.00;3.33;;;;;;;;5105096;27;62114;-73
2022/09/06 08:14:56;;;;;;;;;2.00;2.00;;;;;;;;5103541;27;61903;-73
2022/09/06 08:17:21;;;;;;;;;2.00;2.00;;;;;;;;5105292;27;61816;-74
2022/09/06 08:19:46;;;;;;;;;6.00;3.00;;;;;;;;5104295;27;62065;-74
2022/09/06 08:22:12;;;;;;;;;1.67;1.67;;;;;;;;5105059;27;61666;-74
2022/09/06 08:24:37;;;;;;;;;3.67;3.00;;;;;;;;5104921;27;61917;-74
2022/09/06 08:27:06;;;;;;;;;3.67;2.67;;;;;;;;5104889;27;61838;-74
2022/09/06 08:29:31;;;;;;;;;4.00;1.67;;;;;;;;5102869;27;63791;-74
2022/09/06 08:31:57;;;;;;;;;1.33;1.33;;;;;;;;5102872;27;62242;-72
2022/09/06 08:34:22;;;;;;;;;3.67;2.33;;;;;;;;5103538;27;62078;-72
2022/09/06 08:36:47;;;;;;;;;1.00;1.00;;;;;;;;5104881;27;62158;-72
2022/09/06 08:39:12;;;;;;;;;2.33;2.00;;;;;;;;5102461;27;63461;-73
2022/09/06 08:41:57;;;;;;;;;2.00;2.00;;;;;;;;5104141;27;61849;-73
2022/09/06 08:44:25;;;;;;;;;3.00;2.33;;;;;;;;5104818;27;61878;-72
2022/09/06 08:46:56;;;;;;;;;4.00;4.00;;;;;;;;5103001;27;62351;-74
2022/09/06 08:49:23;;;;;;;;;2.67;2.67;;;;;;;;5101404;27;63429;-74
2022/09/06 08:51:48;;;;;;;;;2.00;2.00;;;;;;;;5103947;27;62106;-74
2022/09/06 08:54:16;;;;;;;;;3.33;3.33;;;;;;;;5104044;27;61785;-74
2022/09/06 08:56:51;;;;;;;;;2.00;2.00;;;;;;;;5104374;27;61900;-75
2022/09/06 08:59:18;;;;;;;;;2.00;2.00;;;;;;;;5102070;27;64103;-75
2022/09/06 09:02:04;;;;;;;;;2.00;2.00;;;;;;;;5104208;27;61850;-75
2022/09/06 09:04:30;;;;;;;;;2.00;1.67;;;;;;;;5099963;27;61964;-75
2022/09/06 09:07:03;;;;;;;;;2.00;2.00;;;;;;;;5104328;27;61933;-74
2022/09/06 09:09:31;;;;;;;;;1.33;1.33;;;;;;;;5102009;27;63982;-74
2022/09/06 09:11:58;;;;;;;;;1.67;1.67;;;;;;;;5102226;27;62101;-74
2022/09/06 09:14:26;;;;;;;;;3.00;3.00;;;;;;;;5104205;27;61897;-75
2022/09/06 09:16:53;;;;;;;;;3.00;2.00;;;;;;;;5102979;27;62076;-75
2022/09/06 09:19:18;;;;;;;;;2.00;2.00;;;;;;;;5103155;27;62889;-75
2022/09/06 09:21:43;;;;;;;;;1.33;1.33;;;;;;;;5102653;27;62097;-75
2022/09/06 09:24:10;;;;;;;;;1.67;1.67;;;;;;;;5103439;27;61863;-74
2022/09/06 09:26:43;;;;;;;;;6.67;2.00;;;;;;;;5102604;27;61910;-75
2022/09/06 09:29:09;;;;;;;;;1.00;1.00;;;;;;;;5101651;27;63969;-75
2022/09/06 09:31:39;;;;;;;;;4.33;2.00;;;;;;;;5102356;27;62086;-74
2022/09/06 09:34:09;;;;;;;;;2.00;2.00;;;;;;;;5103708;27;61819;-75
2022/09/06 09:36:34;;;;;;;;;0.67;0.67;;;;;;;;5102337;27;62278;-75
2022/09/06 09:39:07;;;;;;;;;3.00;2.00;;;;;;;;5101681;27;63774;-75
2022/09/06 09:41:34;;;;;;;;;0.67;0.00;;;;;;;;5103668;27;61883;-74
2022/09/06 09:44:00;;;;;;;;;2.67;2.33;;;;;;;;5102126;27;61898;-75
2022/09/06 09:46:25;;;;;;;;;2.00;2.00;;;;;;;;5102376;27;61954;-75
2022/09/06 09:49:01;;;;;;;;;2.67;0.67;;;;;;;;5103190;27;62779;-75
2022/09/06 09:51:27;;;;;;;;;1.67;1.00;;;;;;;;5101773;27;61996;-75
2022/09/06 09:53:53;;;;;;;;;1.00;0.67;;;;;;;;5102265;27;61800;-75
2022/09/06 09:56:32;;;;;;;;;1.00;1.00;;;;;;;;5103731;27;62113;-75
2022/09/06 09:58:58;;;;;;;;;1.33;0.33;;;;;;;;5102344;27;62176;-75
2022/09/06 10:01:28;;;;;;;;;3.00;1.00;;;;;;;;5102779;27;61880;-75
2022/09/06 10:04:07;;;;;;;;;1.00;1.00;;;;;;;;5102343;27;61984;-75
2022/09/06 10:06:32;;;;;;;;;3.00;2.00;;;;;;;;5103366;27;61991;-75
2022/09/06 10:08:58;;;;;;;;;3.00;1.67;;;;;;;;5101147;27;63153;-75
2022/09/06 10:11:38;;;;;;;;;2.67;1.33;;;;;;;;5097772;27;62471;-75
2022/09/06 10:14:10;;;;;;;;;0.67;0.67;;;;;;;;5082574;28;61949;-75
2022/09/06 10:16:43;;;;;;;;;1.00;1.00;;;;;;;;5081444;28;61847;-75
2022/09/06 10:19:27;;;;;;;;;5.67;2.67;;;;;;;;5080928;28;65047;-74
2022/09/06 10:21:56;;;;;;;;;1.00;1.00;;;;;;;;5081467;28;61797;-74
2022/09/06 10:24:27;;;;;;;;;3.33;1.00;;;;;;;;5081067;28;61977;-75
2022/09/06 10:26:54;;;;;;;;;1.00;0.67;;;;;;;;5080932;28;61703;-74
2022/09/06 10:29:43;;;;;;;;;2.33;1.33;;;;;;;;5080359;28;63577;-74
2022/09/06 10:32:20;;;;;;;;;1.67;1.00;;;;;;;;5080988;28;62008;-73
2022/09/06 10:34:45;;;;;;;;;3.00;1.33;;;;;;;;5082669;28;62037;-75
2022/09/06 10:37:22;;;;;;;;;2.00;1.00;;;;;;;;5088277;27;61991;-78
2022/09/06 10:39:50;;;;;;;;;0.33;0.33;;;;;;;;5100915;27;63620;-76
2022/09/06 10:42:17;;;;;;;;;2.00;2.00;;;;;;;;5101019;27;62149;-75
2022/09/06 10:45:09;;;;;;;;;1.67;1.67;;;;;;;;5103048;27;61983;-76
2022/09/06 10:47:53;;;;;;;;;0.33;0.00;;;;;;;;5062657;28;62056;-76
2022/09/06 10:50:18;;;;;;;;;0.00;0.00;;;;;;;;5078543;28;61952;-75
2022/09/06 10:52:45;;;;;;;;;0.00;0.00;;;;;;;;5062556;28;61727;-75
2022/09/06 10:55:13;;;;;;;;;0.67;0.67;;;;;;;;5079947;28;61877;-74
2022/09/06 10:57:45;;;;;;;;;2.00;1.00;;;;;;;;5079369;28;62039;-74
2022/09/06 11:00:13;;;;;;;;;2.33;2.33;;;;;;;;5079162;28;61900;-75
2022/09/06 11:02:41;;;;;;;;;3.00;3.00;;;;;;;;5079525;28;61865;-75
2022/09/06 11:05:11;;;;;;;;;2.67;2.67;;;;;;;;5062811;28;62104;-75
2022/09/06 11:07:42;;;;;;;;;1.67;0.67;;;;;;;;5062908;28;62492;-75
2022/09/06 11:10:19;;;;;;;;;0.33;0.33;;;;;;;;5061513;28;62930;-75
2022/09/06 11:12:51;;;;;;;;;0.33;0.33;;;;;;;;5080336;27;61972;-76
2022/09/06 11:15:18;;;;;;;;;4.67;1.00;;;;;;;;5066170;28;61841;-75
2022/09/06 11:17:51;;;;;;;;;1.67;0.67;;;;;;;;5082999;27;61998;-75
2022/09/06 11:20:16;;;;;;;;;3.00;1.33;;;;;;;;5082121;28;62893;-75
2022/09/06 11:22:49;;;;;;;;;3.67;2.33;;;;;;;;5065284;28;61941;-77
2022/09/06 11:25:23;;;;;;;;;1.67;0.67;;;;;;;;5080168;28;61884;-76
2022/09/06 11:27:54;;;;;;;;;1.33;1.00;;;;;;;;5085101;28;61807;-74
2022/09/06 11:30:19;;;;;;;;;3.33;1.00;;;;;;;;5083165;28;63852;-75
2022/09/06 11:32:48;;;;;;;;;2.67;0.67;;;;;;;;5083831;28;61775;-76
2022/09/06 11:35:28;;;;;;;;;1.67;1.67;;;;;;;;5085469;27;61892;-75
2022/09/06 11:38:16;;;;;;;;;1.00;1.00;;;;;;;;5096490;27;61775;-75
2022/09/06 11:40:53;;;;;;;;;2.00;1.67;;;;;;;;5098655;27;61860;-76
2022/09/06 11:43:37;;;;;;;;;2.00;2.00;;;;;;;;5103978;27;61865;-75
2022/09/06 11:46:02;;;;;;;;;2.00;1.33;;;;;;;;5104212;27;61778;-75
2022/09/06 11:48:34;;;;;;;;;2.33;1.00;;;;;;;;5104401;27;61856;-75
2022/09/06 11:51:01;;;;;;;;;2.00;1.00;;;;;;;;5103823;27;63696;-76
2022/09/06 11:53:29;;;;;;;;;2.00;1.00;;;;;;;;5104606;27;62077;-75
2022/09/06 11:56:00;;;;;;;;;2.33;1.33;;;;;;;;5105245;27;61720;-74
2022/09/06 11:58:48;;;;;;;;;1.00;1.00;;;;;;;;5104019;27;62051;-75
2022/09/06 12:01:15;;;;;;;;;1.00;1.00;;;;;;;;5103262;27;63906;-75
2022/09/06 12:03:40;;;;;;;;;1.00;1.00;;;;;;;;5105218;27;61673;-75
2022/09/06 12:06:14;;;;;;;;;1.00;1.00;;;;;;;;5104108;27;62216;-75
2022/09/06 12:08:40;;;;;;;;;1.00;1.00;;;;;;;;5104037;27;61911;-75
2022/09/06 12:11:20;;;;;;;;;1.33;1.33;;;;;;;;5098428;27;61865;-74
2022/09/06 12:13:56;;;;;;;;;1.00;1.00;;;;;;;;5100270;27;61950;-74
2022/09/06 12:16:22;;;;;;;;;0.00;0.00;;;;;;;;5100460;27;62027;-74
2022/09/06 12:18:48;;;;;;;;;1.00;1.00;;;;;;;;5084637;28;61743;-74
2022/09/06 12:21:32;;;;;;;;;2.00;2.00;;;;;;;;5083972;28;63201;-74
2022/09/06 12:23:58;;;;;;;;;3.00;2.67;;;;;;;;5082385;28;61766;-74
2022/09/06 12:26:42;;;;;;;;;1.00;1.00;;;;;;;;5084528;28;62197;-74
2022/09/06 12:29:10;;;;;;;;;1.00;1.00;;;;;;;;5084082;27;61790;-74
2022/09/06 12:31:38;;;;;;;;;1.67;1.00;;;;;;;;5098827;27;64883;-74
2022/09/06 12:34:16;;;;;;;;;1.67;1.67;;;;;;;;5082334;28;61714;-74
2022/09/06 12:36:54;;;;;;;;;1.33;1.33;;;;;;;;5085247;27;61766;-74
2022/09/06 12:39:22;;;;;;;;;0.00;0.00;;;;;;;;5104672;27;61863;-74
2022/09/06 12:41:50;;;;;;;;;0.00;0.00;;;;;;;;5104216;27;61753;-74
2022/09/06 12:44:16;;;;;;;;;0.00;0.00;;;;;;;;5104406;27;61831;-74
2022/09/06 12:46:46;;;;;;;;;2.00;1.00;;;;;;;;5104880;27;61827;-74
2022/09/06 12:49:11;;;;;;;;;0.00;0.00;;;;;;;;5104917;27;62338;-74
2022/09/06 12:51:37;;;;;;;;;2.00;1.00;;;;;;;;5103690;27;61895;-75
2022/09/06 12:54:05;;;;;;;;;1.00;1.00;;;;;;;;5102842;27;61919;-75
2022/09/06 12:56:32;;;;;;;;;1.00;1.00;;;;;;;;5104568;27;62228;-74
2022/09/06 12:59:18;;;;;;;;;1.00;0.00;;;;;;;;5104110;27;61908;-74
2022/09/06 13:02:04;;;;;;;;;0.50;0.50;;;;;;;;5102397;27;63020;-74
2022/09/06 13:04:40;;;;;;;;;0.67;0.67;;;;;;;;5102756;27;61850;-75
2022/09/06 13:07:08;;;;;;;;;1.00;1.00;;;;;;;;5102921;27;62173;-74
2022/09/06 13:09:33;;;;;;;;;0.33;0.33;;;;;;;;5102737;27;61785;-74
2022/09/06 13:12:05;;;;;;;;;1.00;1.00;;;;;;;;5098937;27;62142;-74
2022/09/06 13:14:31;;;;;;;;;1.00;1.00;;;;;;;;5103092;27;62142;-74
2022/09/06 13:16:56;;;;;;;;;1.00;1.00;;;;;;;;5084211;27;61984;-74
2022/09/06 13:19:28;;;;;;;;;1.00;1.00;;;;;;;;5083701;28;61853;-74
2022/09/06 13:21:54;;;;;;;;;0.33;0.33;;;;;;;;5081635;28;65154;-74
2022/09/06 13:24:23;;;;;;;;;2.33;1.00;;;;;;;;5099099;27;61974;-74
2022/09/06 13:26:48;;;;;;;;;2.00;0.00;;;;;;;;5082004;28;61776;-74
2022/09/06 13:29:16;;;;;;;;;1.00;1.00;;;;;;;;5098623;27;62016;-75
2022/09/06 13:31:46;;;;;;;;;1.67;1.00;;;;;;;;5081657;28;64079;-74
2022/09/06 13:34:18;;;;;;;;;5.00;2.00;;;;;;;;5081943;28;61821;-75
2022/09/06 13:36:47;;;;;;;;;1.00;1.00;;;;;;;;5085533;27;61864;-75
2022/09/06 13:39:27;;;;;;;;;3.00;2.00;;;;;;;;5102281;27;61753;-75
2022/09/06 13:41:59;;;;;;;;;3.00;2.00;;;;;;;;5103224;27;63473;-75
2022/09/06 13:44:29;;;;;;;;;1.67;1.67;;;;;;;;5102418;27;62088;-74
2022/09/06 13:46:54;;;;;;;;;2.67;2.67;;;;;;;;5103760;27;61797;-75
2022/09/06 13:49:22;;;;;;;;;3.67;1.67;;;;;;;;5102053;27;61885;-75
2022/09/06 13:51:47;;;;;;;;;2.00;2.00;;;;;;;;5103016;27;62776;-75
2022/09/06 13:54:13;;;;;;;;;0.67;0.67;;;;;;;;5101959;27;61876;-75
2022/09/06 13:56:40;;;;;;;;;1.67;1.67;;;;;;;;5102416;27;61820;-75
2022/09/06 13:59:06;;;;;;;;;2.33;2.33;;;;;;;;5102356;27;62144;-75
2022/09/06 14:01:32;;;;;;;;;1.67;1.67;;;;;;;;5102454;27;61958;-75
2022/09/06 14:03:58;;;;;;;;;0.67;0.67;;;;;;;;5102164;27;61756;-75
2022/09/06 14:06:23;;;;;;;;;2.33;1.33;;;;;;;;5102080;27;61915;-74
2022/09/06 14:08:48;;;;;;;;;1.67;1.67;;;;;;;;5103936;27;61882;-75
2022/09/06 14:11:13;;;;;;;;;1.00;1.00;;;;;;;;5102318;27;62018;-75
2022/09/06 14:13:39;;;;;;;;;1.67;1.67;;;;;;;;5101840;27;62046;-75
2022/09/06 14:16:04;;;;;;;;;1.33;1.33;;;;;;;;5103619;27;62086;-75
2022/09/06 14:18:30;;;;;;;;;1.33;1.33;;;;;;;;5102013;27;61810;-75
2022/09/06 14:20:57;;;;;;;;;2.33;2.00;;;;;;;;5101209;27;65118;-75
2022/09/06 14:23:22;;;;;;;;;2.00;2.00;;;;;;;;5101491;27;61860;-75
2022/09/06 14:25:48;;;;;;;;;3.00;3.00;;;;;;;;5101960;27;62021;-75
2022/09/06 14:28:13;;;;;;;;;2.33;2.00;;;;;;;;5103023;27;61870;-75
2022/09/06 14:30:38;;;;;;;;;1.33;1.33;;;;;;;;5102428;27;62170;-75
2022/09/06 14:33:03;;;;;;;;;2.67;2.00;;;;;;;;5101646;27;61798;-75
2022/09/06 14:35:32;;;;;;;;;1.33;1.33;;;;;;;;5102830;27;61964;-75
2022/09/06 14:37:57;;;;;;;;;4.00;2.67;;;;;;;;5099044;27;61998;-74
2022/09/06 14:40:26;;;;;;;;;1.67;1.67;;;;;;;;5102131;27;61955;-75
2022/09/06 14:42:51;;;;;;;;;4.67;2.00;;;;;;;;5102798;27;62062;-75
2022/09/06 14:45:18;;;;;;;;;5.00;2.00;;;;;;;;5102799;27;61675;-75
2022/09/06 14:47:44;;;;;;;;;1.00;1.00;;;;;;;;5104102;27;61761;-75
2022/09/06 14:50:09;;;;;;;;;3.33;2.33;;;;;;;;5104754;27;63652;-75